Record high temperature 100.4°F Record low temperature 10.6°F Record high gust 40 mph Record high average 22.8 mph Record daily rain 11.65 in. Record low windchill 2.7°F Record high barometer 30.773 in. Record low barometer 29.184 in.
Daily high pressure 30.309 in. Daily low pressure 30.257 in. Daily low windchill 37.6°F Daily high heat index 48.8°F Daily high gust speed 2.0 mph ESE Daily high average speed 2.0 mph ESE
Forecast: partly cloudy with little temp. change.
On the Greenway Weather Data - Tigard OR
LAST READING AT TIME: 8:56 AM DATE: April 20 2014, time of next update: 8:57 am
Current WeatherOvercast/Dry Current Temperature 48.7°F (9.3°C), Apparent temp 48.2°F, Apparent temp solar 48.2 °F
Maximum Temperature (since midnight)48.8°F at: 8:54 AM Minimum Temperature (since midnight)37.6°F at: 6:15 AM
Average windspeed (ten minute)0.0 mph Wind Direction (ten minute)ESE (120°)
Windchill Temperature 48.7°F Maximum Gust (last hour) 0 mph at: 8:00 AM
Maximum Gust (since midnight) 2 mph at: 12:11 AM Maximum 1 minute average (since midnight)2.0 mph at: 12:12 AM
Rainfall (last hour)0.00 in. (0.0 mm) Rainfall (since midnight)0.00 in. (0.0 mm) ---
Rainfall This month 1.88 in. (47.8 mm) Rainfall To date this year 24.30 in. (617.2 mm)
Maximum rain per minute (last hour)0.00 in/min Maximum rain per hour (last 6 hours)0.00 in/hour
Yesterdays rainfall 0.14 in DewPoint 45.3°F (Wet Bulb :47.1°F )
Humidity 88 %, Humidex 49.0°F Barometer corrected to msl30.293 in. (1025.9 hPa)
Pressure change -0.01 in. (last hour) Trend (last hour)STEADY
Pressure change (last 12 hours)+0.10 in Pressure change (last 6 hours)+0.01 in
Current Solar 0 W/Mē
Maximum solar (since midnight) 0 W/Mē Minimum solar (since midnight)0 W/Mē
Current 00:00 hours of sunshine today, current sky: Overcast
Sunshine hours for the year: 163:05 hrs Sunshine hours for the month: 00:00 hrs
Current evapotranspiration 0.01 inches per day. Yesterday's reading 0.01

This page is updated from recent data collected by a DAVIS VANTAGE PRO weather station Use the Reload or Refresh facility on your browser to retrieve the latest data.


Click here for the last 24 hour graph
Click here for the last 48 hour graph
Click here for the last 72 hour graph
Click here for the month to date graph


Weather report/Warning/Metars

PORTLAND-HILLSBORO AIRPORT, OR, United States (KHIO) 45-33N 122-57W 68M
Apr 20, 2014 - 10:53 AM EDT / 2014.04.20 1453 UTC
Wind: Calm:0
Visibility: 10 mile(s):0
Sky conditions: overcast
Temperature: 42.1 F (5.6 C)
Dew Point: 39.9 F (4.4 C)
Relative Humidity: 91%
Pressure (altimeter): 30.3 in. Hg (1026 hPa)
Pressure tendency: 0.01 inches (0.5 hPa) higher than three hours ago
ob: KHIO 201453Z 00000KT 10SM BKN031 OVC055 06/04 A3030 RMK AO2 SLP260 T00560044 53005
cycle: 15
PORTLAND INTERNATIONAL  AIRPORT, OR, United States (KPDX) 45-35N 122-36W 7M
Apr 20, 2014 - 10:53 AM EDT / 2014.04.20 1453 UTC
Wind: Calm:0
Visibility: 10 mile(s):0
Sky conditions: mostly cloudy
Temperature: 46.9 F (8.3 C)
Dew Point: 44.1 F (6.7 C)
Relative Humidity: 89%
Pressure (altimeter): 30.31 in. Hg (1026 hPa)
Pressure tendency: 0.01 inches (0.2 hPa) higher than three hours ago
ob: KPDX 201453Z 00000KT 10SM FEW041 BKN250 08/07 A3031 RMK AO2 SLP262 T00830067 53002
cycle: 15
PORTLAND-TROUTDALE AIRPORT, OR, United States (KTTD) 45-33N 122-25W 14M
Apr 20, 2014 - 10:53 AM EDT / 2014.04.20 1453 UTC
Wind: Calm:0
Visibility: 10 mile(s):0
Sky conditions: mostly clear
Temperature: 46.9 F (8.3 C)
Dew Point: 43.0 F (6.1 C)
Relative Humidity: 86%
Pressure (altimeter): 30.3 in. Hg (1026 hPa)
Pressure tendency: 0.01 inches (0.3 hPa) higher than three hours ago
ob: KTTD 201453Z 00000KT 10SM FEW055 08/06 A3030 RMK AO2 SLP259 T00830061 53003
cycle: 15
MCMINNVILLE MUNICIPAL AIRPORT , OR, United States (KMMV) 45-12N 123-08W 48M
Apr 20, 2014 - 10:53 AM EDT / 2014.04.20 1453 UTC
Wind: from the NNE (020 degrees) at 3 MPH (3 KT):0
Visibility: 10 mile(s):0
Sky conditions: overcast
Temperature: 43.0 F (6.1 C)
Dew Point: 42.1 F (5.6 C)
Relative Humidity: 96%
Pressure (altimeter): 30.31 in. Hg (1026 hPa)
Pressure tendency: 0.01 inches (0.4 hPa) higher than three hours ago
ob: KMMV 201453Z AUTO 02003KT 10SM OVC032 06/06 A3031 RMK AO2 SLP262 T00610056 53004 
cycle: 15
SALEM MCNARY FIELD, OR, United States (KSLE) 44-54N 123-00W 59M
Apr 20, 2014 - 10:56 AM EDT / 2014.04.20 1456 UTC
Wind: Calm:0
Visibility: 10 mile(s):0
Sky conditions: clear
Temperature: 45.0 F (7.2 C)
Dew Point: 42.1 F (5.6 C)
Relative Humidity: 89%
Pressure (altimeter): 30.29 in. Hg (1025 hPa)
Pressure tendency: 0.01 inches (0.4 hPa) higher than three hours ago
ob: KSLE 201456Z 00000KT 10SM CLR 07/06 A3029 RMK AO2 SLP258 T00720056 53004
cycle: 15


Sunset at:
8:02 pm

Moonrise at:
12:55 am 04/20/14

Moonset at:
10:34 am 04/20/14

First Quarter  7 April 2014
Full moon  15 April 2014
Last Quarter22 April 2014
New moon 29 April 2014
Moon age: 19 days,22 hours,45 minutes,73%
Hours of possible daylight today was 13:46



Use the RELOAD facility on your browser to retrieve the latest data.

Click here for current Fire weather info
Click here for the daily CLIMATOLOGICAL SUMMARY
Click here for a daily update of the averages/extremes to date for the month




Created by "Weather Display" software version 10.37R Build 81 at this start time/date 10:02 am 4/16/2014




On The Greenway Weather Web Site

 
 
HELP US OUT
Help us keep this weather station on the web. for the Tigard / Portland internet users to use. If you would like to help, click the donate button below
 
This site is purely funded by donations and by myself (Ray Cooper)
Anything you can do will help keep this station on the net
Average cost per year is $665 to publish and host this site excluding the cost of the weather equipment
Buyastrostuff.com is kind enough to host our DNS and email at no cost.
THANKS GUYS & Gals for helping
Have a Question,or just want to talk. Contact me at:
Ray Cooper @ Buyastrostuff.com